Portada
METAR-TAF:

METAR-TAF

Aeropuertos :

Agen, Francia

latitud: 44-11N, longitud: 000-36E, altitud: 61 m

Observación

El informe se hizo hace 37 minutos, a las 04:00 UTC
Viento 6 kt del este-sureste
Temperatura 2°C
Humedad 87%
Presión 1022 hPa
Visibilidad 10 km o más
Cielo cubierto a una altura de 2200 ft

METAR: LFBA 150400Z AUTO 12006KT 9999 OVC022 02/00 Q1022

Hora: 05:37 (04:37 UTC)

Pronóstico

El informe se hizo hace 11 horas y 37 minutos, a las 17:00 UTC
Pronóstico válido del 14 a las 18 UTC al 15 a las 03 UTC
Viento 5 kt del oeste-noroeste
Visibilidad 10 km o más
sin nubes por debajo de 1500 m y sin presencia de cumulonimbus.
Evolucionando progresivamente
del 15 a las 00 UTC al 15 a las 02 UTC
Visibilidad: 3000 m
Cielo nuboso a una altura de 200 ft
neblina

TAF: LFBA 141700Z 1418/1503 30005KT CAVOK BECMG 1500/1502 3000 BR BKN002

Observaciones y pronósticos meteorológicos de más de 4000 aeropuertos (mensajes METAR y TAF).

Los puntos amarillos y rojos representan las estaciones disponibles.

Ponga el ratón en el punto deseado para ver el nombre de la estación.

Haga clic para ver las observaciones y los pronósticos meteorológicos.

Para cambiar el mapa : haga clic en los botones verdes con una cruz de color negro para hacer un zoom, en el botón verde con un guión para alejar o en las flechas verdes para mapas adyacentes.


METAR-TAF: